createdAt,value
2022-08-14T00:02:27.315Z,86.60
2022-08-14T00:04:55.612Z,86.80
2022-08-14T00:07:23.387Z,87.00
2022-08-14T00:10:02.268Z,87.90
2022-08-14T00:12:40.830Z,87.40
2022-08-14T00:15:14.954Z,87.60
2022-08-14T00:17:47.956Z,87.80
2022-08-14T00:20:41.416Z,87.80
2022-08-14T00:23:16.311Z,87.90
2022-08-14T00:25:54.107Z,88.00
2022-08-14T00:28:34.999Z,88.00
2022-08-14T00:31:05.504Z,88.10
2022-08-14T00:33:51.468Z,88.10
2022-08-14T00:36:35.040Z,88.00
2022-08-14T00:39:14.220Z,88.70
2022-08-14T00:41:42.570Z,87.90
2022-08-14T00:44:10.837Z,87.80
2022-08-14T00:46:38.893Z,87.80
2022-08-14T00:49:14.421Z,87.80
2022-08-14T00:51:44.688Z,87.80
2022-08-14T00:54:21.571Z,87.80
2022-08-14T00:56:55.671Z,87.90
2022-08-14T00:59:28.788Z,88.10
2022-08-14T01:01:58.788Z,88.10
2022-08-14T01:04:50.964Z,88.20
2022-08-14T01:07:21.942Z,88.30
2022-08-14T01:09:51.499Z,88.50
2022-08-14T01:12:27.086Z,88.60
2022-08-14T01:14:59.860Z,88.60
2022-08-14T01:18:04.708Z,88.60
2022-08-14T01:20:50.896Z,88.40
2022-08-14T01:23:21.733Z,88.30
2022-08-14T01:25:51.879Z,88.40
2022-08-14T01:28:46.162Z,88.40
2022-08-14T01:31:16.871Z,88.20
2022-08-14T01:35:15.922Z,88.00
2022-08-14T01:36:39.737Z,87.80
2022-08-14T01:39:18.420Z,87.70
2022-08-14T01:41:58.043Z,87.60
2022-08-14T01:44:32.303Z,87.50
2022-08-14T01:47:19.594Z,87.40
2022-08-14T01:49:59.769Z,87.40
2022-08-14T01:52:58.953Z,87.30
2022-08-14T01:55:25.252Z,87.40
2022-08-14T01:58:01.209Z,87.10
2022-08-14T02:00:43.528Z,87.00
2022-08-14T02:03:16.159Z,87.00
2022-08-14T02:05:44.164Z,87.00
2022-08-14T02:08:11.595Z,87.00
2022-08-14T02:10:46.365Z,87.20
2022-08-14T02:13:17.258Z,87.20
2022-08-14T02:15:45.775Z,87.20
2022-08-14T02:18:16.398Z,87.20
2022-08-14T02:20:47.532Z,87.20
2022-08-14T02:23:15.115Z,87.20
2022-08-14T02:25:44.148Z,87.40
2022-08-14T02:28:57.862Z,87.70
2022-08-14T02:31:14.761Z,87.90
2022-08-14T02:33:43.386Z,88.50
2022-08-14T02:37:05.097Z,88.60
2022-08-14T02:39:00.031Z,89.00
2022-08-14T02:41:28.870Z,89.30
2022-08-14T02:44:00.660Z,89.60
2022-08-14T02:46:32.039Z,89.80
2022-08-14T02:49:06.244Z,89.90
2022-08-14T02:51:35.670Z,90.20
2022-08-14T02:54:07.280Z,90.00
2022-08-14T02:57:15.187Z,89.90
2022-08-14T02:59:33.650Z,90.00
2022-08-14T03:02:03.251Z,89.90
2022-08-14T03:04:31.180Z,89.60
2022-08-14T03:07:07.664Z,89.50
2022-08-14T03:10:24.426Z,89.20
2022-08-14T03:12:31.720Z,89.00
2022-08-14T03:15:03.282Z,88.70
2022-08-14T03:17:41.165Z,88.70
2022-08-14T03:20:19.611Z,88.70
2022-08-14T03:22:51.753Z,88.60
2022-08-14T03:25:22.070Z,88.60
2022-08-14T03:27:58.814Z,88.70
2022-08-14T03:30:39.476Z,88.60
2022-08-14T03:33:12.157Z,88.70
2022-08-14T03:36:05.727Z,88.90
2022-08-14T03:39:15.410Z,89.10
2022-08-14T03:41:28.195Z,89.20
2022-08-14T03:45:26.592Z,89.20
2022-08-14T03:46:52.111Z,89.30
2022-08-14T03:49:28.344Z,89.30
2022-08-14T03:52:07.836Z,89.50
2022-08-14T03:54:52.947Z,89.70
2022-08-14T03:57:22.573Z,89.80
2022-08-14T03:59:50.291Z,90.00
2022-08-14T04:02:32.261Z,90.00
2022-08-14T04:05:12.032Z,90.10
2022-08-14T04:08:00.181Z,90.10
2022-08-14T04:10:31.878Z,90.10
2022-08-14T04:13:06.406Z,90.10
2022-08-14T04:15:52.734Z,90.20
2022-08-14T04:18:23.241Z,90.20
2022-08-14T04:20:54.952Z,90.20
2022-08-14T04:23:32.834Z,90.20
2022-08-14T04:26:03.431Z,90.20
2022-08-14T04:29:02.128Z,90.20
2022-08-14T04:32:58.555Z,90.20
2022-08-14T04:34:09.996Z,90.20
2022-08-14T04:37:03.191Z,90.20
2022-08-14T04:39:57.335Z,90.20
2022-08-14T04:42:47.631Z,90.20
2022-08-14T04:45:29.611Z,90.20
2022-08-14T04:48:38.911Z,90.20
2022-08-14T04:51:05.368Z,90.50
2022-08-14T04:53:41.120Z,90.10
2022-08-14T04:56:33.626Z,90.10
2022-08-14T04:59:10.122Z,90.00
2022-08-14T05:01:45.261Z,90.00
2022-08-14T05:04:20.115Z,89.90
2022-08-14T05:06:53.552Z,89.70
2022-08-14T05:09:23.801Z,89.50
2022-08-14T05:11:51.860Z,89.50
2022-08-14T05:14:45.634Z,89.40
2022-08-14T05:17:12.184Z,89.30
2022-08-14T05:19:44.684Z,89.10
2022-08-14T05:22:27.571Z,88.90
2022-08-14T05:24:54.924Z,88.80
2022-08-14T05:27:23.822Z,88.80
2022-08-14T05:29:53.774Z,88.90
2022-08-14T05:32:27.594Z,88.80
2022-08-14T05:35:00.274Z,88.60
2022-08-14T05:37:29.711Z,88.60
2022-08-14T05:39:58.757Z,88.50
2022-08-14T05:42:29.322Z,88.70
2022-08-14T05:45:00.241Z,88.80
2022-08-14T05:47:28.902Z,88.40
2022-08-14T05:50:01.923Z,88.60
2022-08-14T05:52:38.523Z,88.50
2022-08-14T05:55:11.494Z,88.30
2022-08-14T05:57:47.948Z,88.30
2022-08-14T06:00:25.015Z,88.20
2022-08-14T06:02:58.241Z,88.50
2022-08-14T06:05:28.937Z,88.30
2022-08-14T06:08:00.504Z,88.30
2022-08-14T06:10:29.791Z,87.70
2022-08-14T06:12:58.631Z,86.70
2022-08-14T06:15:30.100Z,84.60
2022-08-14T06:18:00.222Z,83.20
2022-08-14T06:20:30.082Z,82.40
2022-08-14T06:22:59.240Z,81.90
2022-08-14T06:25:27.725Z,81.00
2022-08-14T06:27:55.494Z,80.80
2022-08-14T06:30:30.483Z,80.60
2022-08-14T06:33:15.639Z,80.20
2022-08-14T06:35:43.548Z,80.40
2022-08-14T06:38:19.042Z,80.40
2022-08-14T06:40:47.474Z,80.10
2022-08-14T06:43:17.115Z,80.00
2022-08-14T06:45:53.687Z,80.40
2022-08-14T06:48:24.759Z,81.10
2022-08-14T06:50:54.295Z,82.00
2022-08-14T06:53:28.077Z,82.90
2022-08-14T06:55:59.469Z,83.30
2022-08-14T06:58:31.423Z,83.30
2022-08-14T07:01:38.083Z,83.40
2022-08-14T07:04:25.160Z,83.90
2022-08-14T07:06:54.803Z,83.70
2022-08-14T07:09:27.850Z,84.40
2022-08-14T07:11:56.261Z,84.30
2022-08-14T07:14:25.082Z,84.30
2022-08-14T07:16:53.944Z,84.40
2022-08-14T07:19:21.341Z,83.90
2022-08-14T07:21:49.187Z,83.50
2022-08-14T07:24:26.108Z,82.70
2022-08-14T07:26:58.514Z,82.50
2022-08-14T07:29:28.958Z,82.10
2022-08-14T07:31:56.784Z,81.80
2022-08-14T07:34:36.067Z,81.30
2022-08-14T07:37:05.730Z,80.70
2022-08-14T07:39:34.492Z,80.00
2022-08-14T07:42:03.083Z,79.20
2022-08-14T07:44:35.670Z,78.60
2022-08-14T07:47:13.360Z,78.70
2022-08-14T07:49:41.781Z,78.80
2022-08-14T07:52:10.995Z,78.90
2022-08-14T07:54:41.678Z,78.80
2022-08-14T07:57:12.626Z,79.00
2022-08-14T07:59:49.633Z,78.80
2022-08-14T08:02:19.545Z,77.70
2022-08-14T08:04:54.275Z,76.90
2022-08-14T08:07:29.638Z,76.20
2022-08-14T08:09:59.954Z,75.20
2022-08-14T08:12:31.158Z,73.50
2022-08-14T08:15:05.909Z,73.00
2022-08-14T08:17:38.903Z,73.20
2022-08-14T08:20:20.098Z,72.70
2022-08-14T08:22:55.774Z,72.20
2022-08-14T08:25:25.144Z,72.00
2022-08-14T08:27:56.876Z,72.20
2022-08-14T08:30:26.058Z,71.00
2022-08-14T08:32:55.775Z,71.00
2022-08-14T08:35:25.772Z,70.50
2022-08-14T08:39:16.409Z,70.50
2022-08-14T08:41:11.218Z,70.60
2022-08-14T08:43:46.321Z,71.20
2022-08-14T08:46:21.429Z,71.30
2022-08-14T08:51:30.801Z,70.50
2022-08-14T08:54:03.287Z,70.70
2022-08-14T08:56:45.919Z,70.70
2022-08-14T08:59:20.352Z,69.50
2022-08-14T09:01:56.290Z,67.90
2022-08-14T09:04:26.675Z,67.80
2022-08-14T09:07:08.998Z,68.90
2022-08-14T09:09:53.745Z,69.30
2022-08-14T09:12:24.490Z,69.10
2022-08-14T09:14:55.825Z,68.90
2022-08-14T09:17:25.662Z,68.60
2022-08-14T09:19:54.122Z,68.10
2022-08-14T09:22:35.994Z,68.20
2022-08-14T09:25:07.191Z,68.10
2022-08-14T09:27:37.212Z,67.70
2022-08-14T09:30:13.175Z,67.60
2022-08-14T09:33:11.076Z,67.50
2022-08-14T09:36:08.351Z,67.90
2022-08-14T09:38:47.654Z,67.70
2022-08-14T09:42:21.048Z,68.20
2022-08-14T09:44:56.322Z,67.70
2022-08-14T09:47:51.877Z,67.20
2022-08-14T09:50:30.113Z,65.80
2022-08-14T09:53:04.511Z,66.30
2022-08-14T09:55:42.583Z,66.30
2022-08-14T09:58:19.610Z,66.30
2022-08-14T10:01:00.804Z,65.40
2022-08-14T10:03:34.402Z,65.40
2022-08-14T10:06:29.122Z,65.80
2022-08-14T10:09:02.928Z,65.40
2022-08-14T10:11:37.868Z,64.60
2022-08-14T10:14:36.075Z,64.80
2022-08-14T10:17:08.234Z,64.60
2022-08-14T10:19:46.995Z,64.10
2022-08-14T10:23:12.744Z,64.10
2022-08-14T10:25:17.706Z,63.20
2022-08-14T10:27:46.801Z,62.90
2022-08-14T10:30:22.653Z,61.50
2022-08-14T10:32:51.747Z,61.70
2022-08-14T10:35:22.544Z,61.80
2022-08-14T10:37:52.848Z,61.30
2022-08-14T10:40:44.091Z,61.80
2022-08-14T10:43:25.738Z,61.10
2022-08-14T10:46:04.143Z,60.60
2022-08-14T10:48:57.382Z,59.80
2022-08-14T10:51:26.433Z,59.50
2022-08-14T10:53:56.721Z,60.00
2022-08-14T10:56:34.973Z,59.40
2022-08-14T10:59:04.605Z,59.40
2022-08-14T11:01:41.941Z,59.60
2022-08-14T11:04:30.579Z,60.00
2022-08-14T11:06:58.777Z,59.60
2022-08-14T11:09:31.767Z,59.10
2022-08-14T11:12:34.616Z,59.50
2022-08-14T11:14:59.773Z,60.20
2022-08-14T11:17:32.517Z,60.60
2022-08-14T11:20:03.219Z,60.10
2022-08-14T11:22:55.838Z,59.90
2022-08-14T11:25:23.702Z,59.20
2022-08-14T11:27:53.929Z,58.20
2022-08-14T11:30:53.730Z,57.70
2022-08-14T11:33:13.618Z,57.70
2022-08-14T11:35:48.386Z,57.50
2022-08-14T11:38:18.092Z,57.00
2022-08-14T11:40:47.176Z,57.30
2022-08-14T11:43:16.541Z,57.50
2022-08-14T11:45:48.822Z,58.50
2022-08-14T11:49:02.643Z,59.50
2022-08-14T11:51:24.120Z,60.20
2022-08-14T11:54:04.091Z,61.20
2022-08-14T11:56:37.367Z,61.00
2022-08-14T11:59:10.186Z,60.30
2022-08-14T12:01:41.330Z,60.50
2022-08-14T12:04:32.738Z,60.70
2022-08-14T12:07:07.048Z,60.70
2022-08-14T12:09:36.324Z,61.80
2022-08-14T12:12:35.237Z,61.80
2022-08-14T12:15:06.930Z,61.80
2022-08-14T12:17:53.577Z,61.60
2022-08-14T12:20:32.264Z,61.60
2022-08-14T12:23:07.183Z,61.50
2022-08-14T12:25:35.444Z,61.80
2022-08-14T12:28:10.169Z,61.20
2022-08-14T12:30:56.703Z,61.30
2022-08-14T12:33:32.988Z,60.80
2022-08-14T12:36:08.100Z,60.20
2022-08-14T12:38:45.179Z,59.80
2022-08-14T12:41:21.007Z,59.30
2022-08-14T12:43:55.637Z,59.40
2022-08-14T12:46:31.431Z,59.10
2022-08-14T12:49:02.531Z,57.20
2022-08-14T12:51:30.841Z,56.50
2022-08-14T12:54:00.088Z,55.30
2022-08-14T12:56:33.655Z,54.70
2022-08-14T12:59:04.055Z,53.80
2022-08-14T13:01:59.412Z,54.40
2022-08-14T13:04:22.826Z,53.70
2022-08-14T13:06:51.750Z,53.40
2022-08-14T13:09:20.274Z,53.00
2022-08-14T13:11:58.801Z,52.60
2022-08-14T13:14:44.286Z,52.80
2022-08-14T13:17:12.587Z,52.60
2022-08-14T13:19:41.523Z,51.90
2022-08-14T13:22:10.338Z,52.70
2022-08-14T13:24:56.667Z,52.80
2022-08-14T13:27:25.164Z,53.80
2022-08-14T13:29:59.392Z,53.20
2022-08-14T13:32:29.028Z,53.30
2022-08-14T13:34:58.575Z,53.30
2022-08-14T13:37:27.826Z,53.70
2022-08-14T13:39:56.818Z,54.00
2022-08-14T13:42:30.252Z,53.80
2022-08-14T13:45:01.158Z,54.00
2022-08-14T13:47:30.566Z,54.50
2022-08-14T13:50:02.582Z,54.70
2022-08-14T13:52:54.789Z,54.20
2022-08-14T13:55:27.860Z,54.00
2022-08-14T13:58:04.606Z,54.30
2022-08-14T14:00:51.699Z,53.50
2022-08-14T14:03:23.222Z,54.80
2022-08-14T14:05:54.356Z,54.10
2022-08-14T14:08:45.712Z,53.40
2022-08-14T14:11:14.232Z,53.10
2022-08-14T14:13:45.960Z,53.10
2022-08-14T14:16:26.229Z,52.90
2022-08-14T14:19:06.133Z,52.20
2022-08-14T14:21:36.688Z,52.30
2022-08-14T14:24:05.644Z,52.10
2022-08-14T14:26:33.227Z,52.10
2022-08-14T14:29:06.383Z,52.60
2022-08-14T14:31:38.869Z,52.80
2022-08-14T14:34:19.988Z,51.90
2022-08-14T14:37:02.897Z,51.70
2022-08-14T14:39:35.170Z,51.60
2022-08-14T14:42:06.541Z,51.90
2022-08-14T14:44:40.737Z,52.10
2022-08-14T14:47:10.531Z,52.50
2022-08-14T14:49:50.944Z,53.00
2022-08-14T14:52:27.661Z,52.20
2022-08-14T14:54:59.563Z,51.70
2022-08-14T14:57:35.201Z,51.70
2022-08-14T15:00:19.503Z,51.70
2022-08-14T15:02:53.483Z,52.50
2022-08-14T15:05:28.303Z,52.20
2022-08-14T15:07:56.343Z,52.50
2022-08-14T15:10:27.089Z,52.90
2022-08-14T15:13:04.478Z,53.30
2022-08-14T15:15:37.037Z,53.70
2022-08-14T15:18:14.836Z,53.60
2022-08-14T15:20:56.302Z,53.30
2022-08-14T15:23:43.548Z,53.00
2022-08-14T15:26:24.544Z,52.80
2022-08-14T15:29:02.822Z,53.00
2022-08-14T15:31:36.256Z,53.30
2022-08-14T15:34:44.758Z,53.40
2022-08-14T15:36:59.066Z,53.30
2022-08-14T15:39:29.636Z,53.20
2022-08-14T15:42:03.398Z,53.50
2022-08-14T15:44:44.874Z,53.20
2022-08-14T15:47:29.110Z,52.90
2022-08-14T15:50:01.528Z,53.00
2022-08-14T15:52:34.600Z,52.80
2022-08-14T15:55:07.727Z,53.30
2022-08-14T15:57:36.760Z,53.30
2022-08-14T16:00:43.895Z,53.50
2022-08-14T16:03:18.038Z,53.90
2022-08-14T16:05:52.537Z,54.00
2022-08-14T16:08:27.148Z,53.70
2022-08-14T16:11:04.843Z,53.80
2022-08-14T16:13:43.366Z,53.80
2022-08-14T16:16:49.435Z,54.30
2022-08-14T16:19:13.916Z,54.60
2022-08-14T16:22:01.613Z,54.70
2022-08-14T16:24:36.025Z,54.90
2022-08-14T16:27:39.096Z,55.20
2022-08-14T16:30:24.391Z,55.60
2022-08-14T16:32:59.024Z,55.60
2022-08-14T16:35:42.801Z,55.10
2022-08-14T16:38:44.650Z,55.40
2022-08-14T16:41:23.040Z,55.30
2022-08-14T16:43:59.330Z,55.40
2022-08-14T16:46:32.787Z,55.50
2022-08-14T16:49:07.396Z,55.60
2022-08-14T16:51:38.473Z,56.00
2022-08-14T16:54:33.968Z,56.10
2022-08-14T16:57:20.811Z,56.60
2022-08-14T16:59:58.877Z,56.30
2022-08-14T17:03:17.102Z,56.00
2022-08-14T17:05:46.855Z,56.00
2022-08-14T17:08:31.966Z,56.10
2022-08-14T17:11:10.742Z,56.30
2022-08-14T17:13:59.020Z,56.20
2022-08-14T17:16:33.059Z,56.40
2022-08-14T17:19:04.899Z,56.70
2022-08-14T17:21:40.933Z,57.00
2022-08-14T17:24:56.308Z,57.20
2022-08-14T17:27:04.027Z,57.50
2022-08-14T17:29:34.855Z,57.50
2022-08-14T17:32:22.092Z,57.50
2022-08-14T17:35:01.519Z,57.50
2022-08-14T17:37:34.029Z,57.70
2022-08-14T17:40:22.776Z,58.00
2022-08-14T17:45:46.944Z,58.30
2022-08-14T17:49:14.798Z,58.50
2022-08-14T17:51:23.660Z,58.80
2022-08-14T17:54:02.522Z,58.80
2022-08-14T17:56:33.065Z,58.80
2022-08-14T17:59:05.034Z,58.90
2022-08-14T18:01:38.786Z,59.20
2022-08-14T18:04:27.865Z,59.20
2022-08-14T18:07:09.074Z,59.70
2022-08-14T18:09:57.261Z,60.00
2022-08-14T18:12:36.661Z,60.40
2022-08-14T18:15:16.100Z,60.40
2022-08-14T18:17:50.661Z,60.90
2022-08-14T18:21:23.453Z,61.20
2022-08-14T18:23:14.084Z,61.70
2022-08-14T18:25:51.790Z,62.00
2022-08-14T18:28:50.984Z,62.60
2022-08-14T18:31:21.395Z,62.60
2022-08-14T18:33:56.436Z,63.10
2022-08-14T18:36:48.285Z,63.50
2022-08-14T18:39:29.621Z,63.90
2022-08-14T18:42:23.122Z,64.40
2022-08-14T18:44:52.712Z,64.60
2022-08-14T18:47:25.426Z,64.80
2022-08-14T18:50:26.442Z,65.10
2022-08-14T18:53:24.607Z,65.40
2022-08-14T18:55:55.520Z,65.20
2022-08-14T18:58:31.072Z,65.10
2022-08-14T19:01:04.625Z,65.10
2022-08-14T19:03:33.906Z,65.30
2022-08-14T19:06:04.435Z,65.40
2022-08-14T19:08:45.593Z,66.50
2022-08-14T19:11:32.738Z,66.10
2022-08-14T19:14:04.967Z,66.40
2022-08-14T19:16:42.919Z,66.70
2022-08-14T19:19:17.140Z,67.00
2022-08-14T19:21:56.313Z,67.20
2022-08-14T19:24:43.880Z,67.20
2022-08-14T19:27:19.575Z,67.20
2022-08-14T19:29:51.600Z,67.40
2022-08-14T19:32:40.725Z,67.50
2022-08-14T19:35:19.315Z,67.70
2022-08-14T19:37:53.987Z,67.50
2022-08-14T19:40:42.886Z,67.80
2022-08-14T19:43:22.615Z,67.80
2022-08-14T19:46:38.479Z,67.80
2022-08-14T19:48:58.277Z,68.00
2022-08-14T19:51:25.804Z,68.20
2022-08-14T19:54:13.695Z,68.00
2022-08-14T19:56:46.450Z,67.90
2022-08-14T19:59:19.286Z,68.10
2022-08-14T20:01:51.586Z,68.10
2022-08-14T20:04:47.330Z,68.30
2022-08-14T20:07:59.196Z,68.20
2022-08-14T20:11:06.795Z,68.40
2022-08-14T20:13:29.360Z,68.80
2022-08-14T20:16:11.823Z,68.80
2022-08-14T20:18:52.111Z,69.00
2022-08-14T20:21:21.416Z,69.20
2022-08-14T20:23:49.958Z,70.00
2022-08-14T20:26:30.468Z,71.20
2022-08-14T20:29:04.532Z,70.60
2022-08-14T20:31:37.814Z,70.90
2022-08-14T20:34:19.031Z,70.80
2022-08-14T20:37:12.329Z,70.60
2022-08-14T20:39:54.407Z,70.90
2022-08-14T20:42:43.719Z,71.10
2022-08-14T20:45:23.589Z,71.40
2022-08-14T20:48:07.142Z,71.70
2022-08-14T20:50:35.042Z,72.20
2022-08-14T20:53:27.619Z,72.40
2022-08-14T20:56:04.656Z,72.60
2022-08-14T20:58:51.701Z,72.60
2022-08-14T21:01:19.697Z,73.50
2022-08-14T21:03:57.360Z,73.00
2022-08-14T21:06:31.122Z,73.10
2022-08-14T21:09:21.245Z,73.20
2022-08-14T21:12:08.764Z,73.20
2022-08-14T21:14:56.154Z,73.20
2022-08-14T21:17:25.885Z,73.20
2022-08-14T21:19:54.071Z,73.20
2022-08-14T21:22:21.720Z,73.70
2022-08-14T21:24:49.659Z,73.80
2022-08-14T21:27:29.446Z,73.90
2022-08-14T21:30:08.649Z,73.70
2022-08-14T21:32:47.241Z,73.60
2022-08-14T21:35:26.129Z,73.60
2022-08-14T21:37:53.938Z,73.70
2022-08-14T21:40:46.728Z,74.00
2022-08-14T21:43:19.140Z,74.10
2022-08-14T21:45:53.942Z,74.30
2022-08-14T21:48:26.686Z,74.40
2022-08-14T21:51:52.527Z,74.70
2022-08-14T21:53:58.418Z,74.10
2022-08-14T21:56:38.469Z,73.30
2022-08-14T21:59:22.802Z,73.00
2022-08-14T22:02:00.277Z,72.90
2022-08-14T22:04:34.322Z,72.80
2022-08-14T22:07:08.163Z,73.20
2022-08-14T22:09:37.078Z,73.10
2022-08-14T22:12:07.300Z,73.20
2022-08-14T22:14:43.458Z,73.70
2022-08-14T22:17:16.513Z,74.50
2022-08-14T22:19:54.187Z,75.60
2022-08-14T22:22:26.699Z,75.90
2022-08-14T22:25:00.009Z,76.10
2022-08-14T22:27:32.294Z,75.90
2022-08-14T22:30:02.347Z,76.00
2022-08-14T22:32:35.183Z,76.40
2022-08-14T22:35:18.710Z,76.80
2022-08-14T22:38:36.309Z,77.00
2022-08-14T22:41:09.854Z,76.80
2022-08-14T22:43:31.324Z,76.20
2022-08-14T22:46:02.468Z,76.00
2022-08-14T22:48:30.008Z,76.20
2022-08-14T22:50:58.779Z,76.40
2022-08-14T22:53:29.527Z,77.00
2022-08-14T22:55:57.882Z,77.40
2022-08-14T22:58:30.398Z,77.70
2022-08-14T23:01:01.144Z,77.90
2022-08-14T23:03:31.331Z,78.00
2022-08-14T23:06:03.262Z,78.20
2022-08-14T23:08:59.171Z,78.20
2022-08-14T23:11:28.865Z,78.00
2022-08-14T23:13:56.606Z,77.80
2022-08-14T23:16:28.247Z,77.60
2022-08-14T23:18:55.655Z,77.60
2022-08-14T23:21:25.121Z,77.50
2022-08-14T23:23:57.275Z,77.50
2022-08-14T23:26:48.640Z,77.50
2022-08-14T23:29:17.899Z,77.50
2022-08-14T23:31:46.550Z,77.40
2022-08-14T23:34:20.591Z,78.10
2022-08-14T23:36:55.884Z,77.30
2022-08-14T23:39:32.476Z,77.20
2022-08-14T23:42:07.353Z,77.90
2022-08-14T23:44:37.455Z,78.20
2022-08-14T23:47:25.490Z,79.20
2022-08-14T23:50:00.834Z,78.90
2022-08-14T23:53:07.311Z,79.00
2022-08-14T23:55:35.722Z,79.00
2022-08-14T23:58:09.852Z,79.10
